createdAt,value
2018-09-17T00:00:41.555Z,16.47
2018-09-17T00:03:08.703Z,10.10
2018-09-17T00:05:35.868Z,10.03
2018-09-17T00:08:03.114Z,10.87
2018-09-17T00:10:30.274Z,9.60
2018-09-17T00:12:57.456Z,9.50
2018-09-17T00:15:24.738Z,10.10
2018-09-17T00:17:52.061Z,11.50
2018-09-17T00:20:19.278Z,9.70
2018-09-17T00:22:46.418Z,9.93
2018-09-17T00:25:13.715Z,9.80
2018-09-17T00:27:42.009Z,9.10
2018-09-17T00:30:09.244Z,9.90
2018-09-17T00:32:36.765Z,12.20
2018-09-17T00:35:04.308Z,11.50
2018-09-17T00:37:31.629Z,10.23
2018-09-17T00:39:58.881Z,10.13
2018-09-17T00:42:26.162Z,10.63
2018-09-17T00:44:53.325Z,9.40
2018-09-17T00:47:20.631Z,10.50
2018-09-17T00:49:47.884Z,10.00
2018-09-17T00:52:15.151Z,10.00
2018-09-17T00:54:42.388Z,9.67
2018-09-17T00:57:09.573Z,9.17
2018-09-17T00:59:36.857Z,9.63
2018-09-17T01:02:04.066Z,13.03
2018-09-17T01:04:31.482Z,9.30
2018-09-17T01:07:01.104Z,9.60
2018-09-17T01:09:36.996Z,9.37
2018-09-17T01:12:04.222Z,8.50
2018-09-17T01:14:31.404Z,9.00
2018-09-17T01:16:58.536Z,8.77
2018-09-17T01:19:25.759Z,7.73
2018-09-17T01:21:52.974Z,8.80
2018-09-17T01:24:20.156Z,14.87
2018-09-17T01:26:47.598Z,9.97
2018-09-17T01:29:14.850Z,8.97
2018-09-17T01:31:42.085Z,9.20
2018-09-17T01:34:09.249Z,9.23
2018-09-17T01:36:37.026Z,11.80
2018-09-17T01:39:06.897Z,8.47
2018-09-17T01:41:34.095Z,8.73
2018-09-17T01:44:01.407Z,8.20
2018-09-17T01:46:28.625Z,9.50
2018-09-17T01:48:55.800Z,9.93
2018-09-17T01:51:23.228Z,9.17
2018-09-17T01:53:51.500Z,9.83
2018-09-17T01:56:18.795Z,9.47
2018-09-17T01:58:46.140Z,8.00
2018-09-17T02:01:13.260Z,8.97
2018-09-17T02:03:40.422Z,7.73
2018-09-17T02:06:07.626Z,8.40
2018-09-17T02:08:35.293Z,9.73
2018-09-17T02:11:02.460Z,7.87
2018-09-17T02:13:29.750Z,10.87
2018-09-17T02:15:56.933Z,7.83
2018-09-17T02:18:24.324Z,7.93
2018-09-17T02:20:52.571Z,9.63
2018-09-17T02:23:19.855Z,7.37
2018-09-17T02:25:47.045Z,8.17
2018-09-17T02:28:15.264Z,7.53
2018-09-17T02:30:42.700Z,8.00
2018-09-17T02:33:09.878Z,7.83
2018-09-17T02:35:37.172Z,8.73
2018-09-17T02:38:04.638Z,7.67
2018-09-17T02:40:31.874Z,7.53
2018-09-17T02:42:59.101Z,8.07
2018-09-17T02:45:26.338Z,7.37
2018-09-17T02:47:53.581Z,7.63
2018-09-17T02:50:21.541Z,11.03
2018-09-17T02:52:48.820Z,7.27
2018-09-17T02:55:16.002Z,9.70
2018-09-17T02:57:43.317Z,12.97
2018-09-17T03:00:10.508Z,7.40
2018-09-17T03:02:37.999Z,9.70
2018-09-17T03:05:05.524Z,10.30
2018-09-17T03:07:32.714Z,6.93
2018-09-17T03:09:59.957Z,8.33
2018-09-17T03:12:27.258Z,8.00
2018-09-17T03:14:54.428Z,6.93
2018-09-17T03:17:21.656Z,7.33
2018-09-17T03:19:48.953Z,8.40
2018-09-17T03:22:16.185Z,8.17
2018-09-17T03:24:43.391Z,8.00
2018-09-17T03:27:10.559Z,7.60
2018-09-17T03:29:37.777Z,8.37
2018-09-17T03:32:05.017Z,7.20
2018-09-17T03:34:33.213Z,8.97
2018-09-17T03:37:00.515Z,9.83
2018-09-17T03:39:27.798Z,9.90
2018-09-17T03:41:55.037Z,8.47
2018-09-17T03:44:22.476Z,9.63
2018-09-17T03:46:49.728Z,9.37
2018-09-17T03:49:16.984Z,8.70
2018-09-17T03:51:44.117Z,10.07
2018-09-17T03:54:11.325Z,11.00
2018-09-17T03:56:38.495Z,10.07
2018-09-17T03:59:05.810Z,9.30
2018-09-17T04:01:32.959Z,10.40
2018-09-17T04:04:00.217Z,9.53
2018-09-17T04:06:27.430Z,10.67
2018-09-17T04:08:54.611Z,12.40
2018-09-17T04:11:22.339Z,11.90
2018-09-17T04:13:49.543Z,18.20
2018-09-17T04:16:17.311Z,13.20
2018-09-17T04:18:45.021Z,14.73
2018-09-17T04:21:12.172Z,15.40
2018-09-17T04:23:39.520Z,17.47
2018-09-17T04:26:08.917Z,10.90
2018-09-17T04:28:36.710Z,10.60
2018-09-17T04:31:04.194Z,15.73
2018-09-17T04:33:46.299Z,15.40
2018-09-17T04:36:13.600Z,12.57
2018-09-17T04:38:40.789Z,14.30
2018-09-17T04:41:08.023Z,12.27
2018-09-17T04:43:35.253Z,10.23
2018-09-17T04:46:02.455Z,12.37
2018-09-17T04:48:30.672Z,9.60
2018-09-17T04:50:57.949Z,11.13
2018-09-17T04:53:25.941Z,10.60
2018-09-17T04:55:53.243Z,10.47
2018-09-17T04:58:20.425Z,10.50
2018-09-17T05:00:48.056Z,10.77
2018-09-17T05:03:15.276Z,12.50
2018-09-17T05:05:42.502Z,10.37
2018-09-17T05:08:09.697Z,10.20
2018-09-17T05:10:36.981Z,11.20
2018-09-17T05:13:05.515Z,26.87
2018-09-17T05:15:32.732Z,17.43
2018-09-17T05:17:59.962Z,13.80
2018-09-17T05:20:28.193Z,16.03
2018-09-17T05:22:55.751Z,16.70
2018-09-17T05:25:23.043Z,16.77
2018-09-17T05:27:50.264Z,21.53
2018-09-17T05:30:17.504Z,18.33
2018-09-17T05:32:44.757Z,14.60
2018-09-17T05:35:12.206Z,15.17
2018-09-17T05:37:39.618Z,20.70
2018-09-17T05:40:06.810Z,15.17
2018-09-17T05:42:34.350Z,16.03
2018-09-17T05:45:01.650Z,17.23
2018-09-17T05:47:28.844Z,18.50
2018-09-17T05:49:56.145Z,13.93
2018-09-17T05:52:23.826Z,15.43
2018-09-17T05:54:51.115Z,21.67
2018-09-17T05:57:18.567Z,18.50
2018-09-17T05:59:45.835Z,24.10
2018-09-17T06:02:13.103Z,20.47
2018-09-17T06:04:40.444Z,22.60
2018-09-17T06:07:07.750Z,19.20
2018-09-17T06:09:37.076Z,18.73
2018-09-17T06:12:04.290Z,17.23
2018-09-17T06:14:31.556Z,26.50
2018-09-17T06:16:58.790Z,16.73
2018-09-17T06:19:26.015Z,17.90
2018-09-17T06:21:53.413Z,30.00
2018-09-17T06:24:21.600Z,22.40
2018-09-17T06:26:48.904Z,23.43
2018-09-17T06:29:16.123Z,19.77
2018-09-17T06:31:43.417Z,26.57
2018-09-17T06:34:10.655Z,28.80
2018-09-17T06:36:37.938Z,26.27
2018-09-17T06:39:06.641Z,17.63
2018-09-17T06:41:33.960Z,15.60
2018-09-17T06:44:01.281Z,14.20
2018-09-17T06:46:29.646Z,19.43
2018-09-17T06:48:56.963Z,18.70
2018-09-17T06:51:24.322Z,24.40
2018-09-17T06:53:51.497Z,19.57
2018-09-17T06:56:19.157Z,16.63
2018-09-17T06:58:46.495Z,17.97
2018-09-17T07:01:14.073Z,19.73
2018-09-17T07:03:41.384Z,19.53
2018-09-17T07:06:08.785Z,20.17
2018-09-17T07:08:35.960Z,17.03
2018-09-17T07:11:03.554Z,21.30
2018-09-17T07:13:31.360Z,19.30
2018-09-17T07:15:58.971Z,17.23
2018-09-17T07:18:26.328Z,24.67
2018-09-17T07:20:58.392Z,25.23
2018-09-17T07:23:26.989Z,28.57
2018-09-17T07:25:54.243Z,33.77
2018-09-17T07:28:21.495Z,31.17
2018-09-17T07:30:48.842Z,31.20
2018-09-17T07:33:16.107Z,23.63
2018-09-17T07:35:43.842Z,26.33
2018-09-17T07:38:11.596Z,31.63
2018-09-17T07:40:38.881Z,34.27
2018-09-17T07:43:06.165Z,32.67
2018-09-17T07:45:33.469Z,39.37
2018-09-17T07:48:02.076Z,30.73
2018-09-17T07:50:29.301Z,38.50
2018-09-17T07:52:56.628Z,68.90
2018-09-17T07:55:25.330Z,28.70
2018-09-17T07:57:52.693Z,44.97
2018-09-17T08:00:21.092Z,41.63
2018-09-17T08:02:49.572Z,61.67
2018-09-17T08:05:16.993Z,44.13
2018-09-17T08:07:44.524Z,29.37
2018-09-17T08:10:16.381Z,26.63
2018-09-17T08:12:43.634Z,29.67
2018-09-17T08:15:10.989Z,52.77
2018-09-17T08:17:38.272Z,35.60
2018-09-17T08:20:05.655Z,41.07
2018-09-17T08:22:33.064Z,46.37
2018-09-17T08:25:00.312Z,44.07
2018-09-17T08:27:28.180Z,31.50
2018-09-17T08:29:55.461Z,27.00
2018-09-17T08:32:23.052Z,33.53
2018-09-17T08:34:50.382Z,34.00
2018-09-17T08:37:17.673Z,27.20
2018-09-17T08:39:44.931Z,22.57
2018-09-17T08:42:12.205Z,24.70
2018-09-17T08:44:39.989Z,29.50
2018-09-17T08:47:08.374Z,21.00
2018-09-17T08:49:35.653Z,25.03
2018-09-17T08:52:02.937Z,19.90
2018-09-17T08:54:30.344Z,20.97
2018-09-17T08:56:57.565Z,21.43
2018-09-17T08:59:30.584Z,23.83
2018-09-17T09:01:58.737Z,20.17
2018-09-17T09:04:27.578Z,22.50
2018-09-17T09:06:59.495Z,27.03
2018-09-17T09:09:27.033Z,21.03
2018-09-17T09:11:58.947Z,19.47
2018-09-17T09:14:32.810Z,21.20
2018-09-17T09:17:00.077Z,20.50
2018-09-17T09:19:27.509Z,27.73
2018-09-17T09:21:54.816Z,21.50
2018-09-17T09:24:22.098Z,22.30
2018-09-17T09:26:49.361Z,22.10
2018-09-17T09:29:16.542Z,17.63
2018-09-17T09:31:43.732Z,27.50
2018-09-17T09:34:11.032Z,16.77
2018-09-17T09:36:38.438Z,16.67
2018-09-17T09:39:07.915Z,15.00
2018-09-17T09:41:35.213Z,15.47
2018-09-17T09:44:02.419Z,13.20
2018-09-17T09:46:29.899Z,14.10
2018-09-17T09:48:57.535Z,15.03
2018-09-17T09:51:24.758Z,17.17
2018-09-17T09:53:52.285Z,16.00
2018-09-17T09:56:19.689Z,12.30
2018-09-17T09:58:46.969Z,12.83
2018-09-17T10:01:19.976Z,11.93
2018-09-17T10:06:25.381Z,11.07
2018-09-17T10:08:58.643Z,11.43
2018-09-17T10:11:31.693Z,11.47
2018-09-17T10:14:04.801Z,10.00
2018-09-17T10:16:32.120Z,12.33
2018-09-17T10:19:05.183Z,10.83
2018-09-17T10:21:32.533Z,13.70
2018-09-17T10:24:00.183Z,12.90
2018-09-17T10:26:27.593Z,14.13
2018-09-17T10:28:55.040Z,11.60
2018-09-17T10:31:22.382Z,11.60
2018-09-17T10:33:49.583Z,10.70
2018-09-17T10:36:17.960Z,10.30
2018-09-17T10:38:45.368Z,9.80
2018-09-17T10:41:12.891Z,10.80
2018-09-17T10:43:40.580Z,11.40
2018-09-17T10:46:09.007Z,10.97
2018-09-17T10:48:36.377Z,9.37
2018-09-17T10:51:03.732Z,9.57
2018-09-17T10:53:31.623Z,8.80
2018-09-17T10:55:59.350Z,10.10
2018-09-17T10:58:26.707Z,11.07
2018-09-17T11:00:54.884Z,8.43
2018-09-17T11:03:22.407Z,8.90
2018-09-17T11:05:49.710Z,9.50
2018-09-17T11:08:17.672Z,9.60
2018-09-17T11:10:45.117Z,8.63
2018-09-17T11:13:12.325Z,12.00
2018-09-17T11:15:45.636Z,9.37
2018-09-17T11:18:13.885Z,11.13
2018-09-17T11:20:41.292Z,8.43
2018-09-17T11:23:08.622Z,8.30
2018-09-17T11:25:35.987Z,9.03
2018-09-17T11:28:04.540Z,9.83
2018-09-17T11:30:33.986Z,8.80
2018-09-17T11:33:01.363Z,8.43
2018-09-17T11:35:28.691Z,8.80
2018-09-17T11:37:56.356Z,9.43
2018-09-17T11:40:24.965Z,7.77
2018-09-17T11:42:53.325Z,8.80
2018-09-17T11:45:20.988Z,9.50
2018-09-17T11:47:49.198Z,8.57
2018-09-17T11:50:17.206Z,7.43
2018-09-17T11:52:44.522Z,8.03
2018-09-17T11:55:11.848Z,7.30
2018-09-17T11:57:40.261Z,7.70
2018-09-17T12:00:09.206Z,7.37
2018-09-17T12:02:37.180Z,7.27
2018-09-17T12:05:05.271Z,6.87
2018-09-17T12:07:35.364Z,6.73
2018-09-17T12:10:12.533Z,6.63
2018-09-17T12:12:40.653Z,6.30
2018-09-17T12:15:08.503Z,6.73
2018-09-17T12:17:36.150Z,6.63
2018-09-17T12:20:03.514Z,9.83
2018-09-17T12:22:31.049Z,8.30
2018-09-17T12:31:56.354Z,7.43
2018-09-17T12:34:23.877Z,5.73
2018-09-17T12:36:51.163Z,7.33
2018-09-17T12:39:18.541Z,7.57
2018-09-17T12:41:45.789Z,7.30
2018-09-17T12:44:13.057Z,7.17
2018-09-17T12:46:40.524Z,10.23
2018-09-17T12:49:08.668Z,6.73
2018-09-17T12:51:36.101Z,6.90
2018-09-17T12:54:03.541Z,8.80
2018-09-17T12:56:31.887Z,6.73
2018-09-17T12:58:59.263Z,6.97
2018-09-17T13:01:26.573Z,6.97
2018-09-17T13:03:53.880Z,14.30
2018-09-17T13:06:21.497Z,5.87
2018-09-17T13:08:48.841Z,6.20
2018-09-17T13:11:16.397Z,5.87
2018-09-17T13:13:43.786Z,7.20
2018-09-17T13:16:11.164Z,5.70
2018-09-17T13:18:38.687Z,6.40
2018-09-17T13:21:07.171Z,5.90
2018-09-17T13:23:34.536Z,6.87
2018-09-17T13:26:02.055Z,5.90
2018-09-17T13:28:30.029Z,6.10
2018-09-17T13:30:57.263Z,5.83
2018-09-17T13:33:24.490Z,5.43
2018-09-17T13:35:51.737Z,6.00
2018-09-17T13:38:21.035Z,5.70
2018-09-17T13:40:49.580Z,5.70
2018-09-17T13:43:16.774Z,5.87
2018-09-17T13:45:43.987Z,6.10
2018-09-17T13:48:11.993Z,7.17
2018-09-17T13:50:39.308Z,6.43
2018-09-17T13:53:08.704Z,5.83
2018-09-17T13:55:36.884Z,5.57
2018-09-17T13:58:04.684Z,5.93
2018-09-17T14:00:31.952Z,7.17
2018-09-17T14:02:59.269Z,5.90
2018-09-17T14:05:26.589Z,12.50
2018-09-17T14:07:53.950Z,5.30
2018-09-17T14:10:21.216Z,4.53
2018-09-17T14:12:52.378Z,4.57
2018-09-17T14:15:19.620Z,4.73
2018-09-17T14:17:47.995Z,5.90
2018-09-17T14:20:15.425Z,5.50
2018-09-17T14:22:42.687Z,6.10
2018-09-17T14:25:10.884Z,6.73
2018-09-17T14:27:38.404Z,5.50
2018-09-17T14:30:07.427Z,5.50
2018-09-17T14:32:40.450Z,5.53
2018-09-17T14:35:13.537Z,4.90
2018-09-17T14:37:44.037Z,5.90
2018-09-17T14:40:20.264Z,5.27
2018-09-17T14:42:47.655Z,5.40
2018-09-17T14:45:15.034Z,6.10
2018-09-17T14:47:43.202Z,5.80
2018-09-17T14:50:11.236Z,5.80
2018-09-17T14:52:39.715Z,5.23
2018-09-17T14:55:07.107Z,7.63
2018-09-17T14:57:34.396Z,5.40
2018-09-17T15:00:01.798Z,6.50
2018-09-17T15:02:29.707Z,5.50
2018-09-17T15:04:57.188Z,5.73
2018-09-17T15:07:24.429Z,5.53
2018-09-17T15:09:51.876Z,6.33
2018-09-17T15:12:19.168Z,6.83
2018-09-17T15:14:46.741Z,5.70
2018-09-17T15:17:15.275Z,5.67
2018-09-17T15:19:42.573Z,6.10
2018-09-17T15:22:09.932Z,5.60
2018-09-17T15:24:43.425Z,15.37
2018-09-17T15:27:13.013Z,16.57
2018-09-17T15:29:47.178Z,8.70
2018-09-17T15:32:20.129Z,8.40
2018-09-17T15:34:48.898Z,10.30
2018-09-17T15:37:22.901Z,6.80
2018-09-17T15:39:56.323Z,6.47
2018-09-17T15:42:29.400Z,6.70
2018-09-17T15:44:58.327Z,5.87
2018-09-17T15:47:31.352Z,6.20
2018-09-17T15:50:07.796Z,7.00
2018-09-17T15:52:45.448Z,7.07
2018-09-17T15:57:57.892Z,8.90
2018-09-17T16:00:25.730Z,11.40
2018-09-17T16:02:53.075Z,9.07
2018-09-17T16:05:21.086Z,8.53
2018-09-17T16:07:48.578Z,8.33
2018-09-17T16:10:16.024Z,13.70
2018-09-17T16:12:45.753Z,6.60
2018-09-17T16:15:25.352Z,9.43
2018-09-17T16:17:53.804Z,9.00
2018-09-17T16:20:21.073Z,8.73
2018-09-17T16:23:01.678Z,12.70
2018-09-17T16:25:30.435Z,11.53
2018-09-17T16:27:58.779Z,13.27
2018-09-17T16:30:27.368Z,6.87
2018-09-17T16:32:55.332Z,13.17
2018-09-17T16:35:24.624Z,8.20
2018-09-17T16:37:52.789Z,7.77
2018-09-17T16:40:20.188Z,9.10
2018-09-17T16:42:48.328Z,8.70
2018-09-17T16:45:15.640Z,10.03
2018-09-17T16:47:45.249Z,11.70
2018-09-17T16:50:12.788Z,9.10
2018-09-17T16:52:40.002Z,12.17
2018-09-17T16:55:08.869Z,8.40
2018-09-17T16:57:36.190Z,9.13
2018-09-17T17:00:03.604Z,9.53
2018-09-17T17:02:30.898Z,9.23
2018-09-17T17:05:01.773Z,9.17
2018-09-17T17:07:29.197Z,8.40
2018-09-17T17:09:56.721Z,10.10
2018-09-17T17:12:24.988Z,9.60
2018-09-17T17:14:52.190Z,7.97
2018-09-17T17:17:19.565Z,9.30
2018-09-17T17:19:46.788Z,9.10
2018-09-17T17:22:22.191Z,10.97
2018-09-17T17:24:49.430Z,13.93
2018-09-17T17:27:18.142Z,21.33
2018-09-17T17:29:45.816Z,20.23
2018-09-17T17:32:12.996Z,20.47
2018-09-17T17:34:40.243Z,16.50
2018-09-17T17:37:08.953Z,13.77
2018-09-17T17:39:37.090Z,12.50
2018-09-17T17:42:04.250Z,14.73
2018-09-17T17:44:32.132Z,12.80
2018-09-17T17:46:59.903Z,13.27
2018-09-17T17:49:27.324Z,14.70
2018-09-17T17:51:57.097Z,21.50
2018-09-17T17:54:31.177Z,11.90
2018-09-17T17:56:58.559Z,15.57
2018-09-17T17:59:25.940Z,12.03
2018-09-17T18:01:53.405Z,13.23
2018-09-17T18:04:21.793Z,17.57
2018-09-17T18:06:49.317Z,14.40
2018-09-17T18:09:16.940Z,12.63
2018-09-17T18:11:44.552Z,16.73
2018-09-17T18:14:11.997Z,14.13
2018-09-17T18:16:40.040Z,15.23
2018-09-17T18:19:07.865Z,12.13
2018-09-17T18:21:35.216Z,16.00
2018-09-17T18:24:02.686Z,13.13
2018-09-17T18:26:30.195Z,14.60
2018-09-17T18:28:57.750Z,18.00
2018-09-17T18:31:25.821Z,18.40
2018-09-17T18:33:53.476Z,20.00
2018-09-17T18:36:22.171Z,14.70
2018-09-17T18:39:00.102Z,17.30
2018-09-17T18:41:27.734Z,17.00
2018-09-17T18:43:55.443Z,12.30
2018-09-17T18:46:49.251Z,13.73
2018-09-17T18:49:16.717Z,19.03
2018-09-17T18:51:44.785Z,16.87
2018-09-17T18:54:14.814Z,17.50
2018-09-17T18:56:43.105Z,15.40
2018-09-17T18:59:10.471Z,25.30
2018-09-17T19:01:37.824Z,16.50
2018-09-17T19:04:05.373Z,18.57
2018-09-17T19:06:33.385Z,17.27
2018-09-17T19:09:00.926Z,14.10
2018-09-17T19:11:30.074Z,12.97
2018-09-17T19:14:03.857Z,19.53
2018-09-17T19:16:38.804Z,26.10
2018-09-17T19:19:06.717Z,21.20
2018-09-17T19:21:40.683Z,14.93
2018-09-17T19:24:08.694Z,18.37
2018-09-17T19:26:36.101Z,19.30
2018-09-17T19:29:09.354Z,30.87
2018-09-17T19:31:36.803Z,26.03
2018-09-17T19:34:04.881Z,23.13
2018-09-17T19:36:32.484Z,20.43
2018-09-17T19:39:06.085Z,20.63
2018-09-17T19:41:34.134Z,15.50
2018-09-17T19:44:03.007Z,22.43
2018-09-17T19:46:31.334Z,18.93
2018-09-17T19:49:03.397Z,16.60
2018-09-17T19:51:37.828Z,21.47
2018-09-17T19:54:06.382Z,14.87
2018-09-17T19:56:33.598Z,15.27
2018-09-17T19:59:07.864Z,26.43
2018-09-17T20:01:35.504Z,14.97
2018-09-17T20:04:08.839Z,18.40
2018-09-17T20:06:37.495Z,16.33
2018-09-17T20:09:07.815Z,17.80
2018-09-17T20:11:35.324Z,17.07
2018-09-17T20:14:02.883Z,14.97
2018-09-17T20:16:31.354Z,37.43
2018-09-17T20:18:59.289Z,19.70
2018-09-17T20:21:27.375Z,19.00
2018-09-17T20:23:55.021Z,14.27
2018-09-17T20:26:25.138Z,14.97
2018-09-17T20:28:58.123Z,21.40
2018-09-17T20:31:27.133Z,16.93
2018-09-17T20:33:56.694Z,18.07
2018-09-17T20:36:25.601Z,15.77
2018-09-17T20:38:53.685Z,22.13
2018-09-17T20:41:22.690Z,13.30
2018-09-17T20:43:50.081Z,29.90
2018-09-17T20:46:17.389Z,15.17
2018-09-17T20:48:46.659Z,17.00
2018-09-17T20:51:14.361Z,12.77
2018-09-17T20:53:41.858Z,14.83
2018-09-17T20:56:10.098Z,13.83
2018-09-17T20:58:38.936Z,12.20
2018-09-17T21:01:07.989Z,11.83
2018-09-17T21:03:36.313Z,15.70
2018-09-17T21:06:04.233Z,11.90
2018-09-17T21:08:33.819Z,27.10
2018-09-17T21:11:01.280Z,11.40
2018-09-17T21:13:30.228Z,14.80
2018-09-17T21:15:57.417Z,11.97
2018-09-17T21:18:25.511Z,12.10
2018-09-17T21:20:53.217Z,10.73
2018-09-17T21:23:20.894Z,9.83
2018-09-17T21:25:48.989Z,10.20
2018-09-17T21:28:16.771Z,11.90
2018-09-17T21:30:44.929Z,10.70
2018-09-17T21:33:12.996Z,13.50
2018-09-17T21:35:40.488Z,10.07
2018-09-17T21:38:09.080Z,14.10
2018-09-17T21:40:40.217Z,9.87
2018-09-17T21:43:07.907Z,9.63
2018-09-17T21:45:35.348Z,10.40
2018-09-17T21:48:03.263Z,10.83
2018-09-17T21:50:32.022Z,11.27
2018-09-17T21:53:00.188Z,11.30
2018-09-17T21:55:27.527Z,11.27
2018-09-17T21:57:55.406Z,13.57
2018-09-17T22:00:24.077Z,11.27
2018-09-17T22:02:51.385Z,12.10
2018-09-17T22:05:19.806Z,14.40
2018-09-17T22:07:54.405Z,16.33
2018-09-17T22:10:23.403Z,16.63
2018-09-17T22:12:51.407Z,13.43
2018-09-17T22:15:20.394Z,11.60
2018-09-17T22:17:47.701Z,12.90
2018-09-17T22:20:14.991Z,12.63
2018-09-17T22:22:42.873Z,13.00
2018-09-17T22:25:10.566Z,10.97
2018-09-17T22:27:38.580Z,11.33
2018-09-17T22:30:07.658Z,12.73
2018-09-17T22:32:34.896Z,14.23
2018-09-17T22:35:02.944Z,12.13
2018-09-17T22:37:32.072Z,14.60
2018-09-17T22:40:00.573Z,12.50
2018-09-17T22:42:29.460Z,12.07
2018-09-17T22:44:57.624Z,11.60
2018-09-17T22:47:27.576Z,12.40
2018-09-17T22:49:54.888Z,12.67
2018-09-17T22:52:22.347Z,12.50
2018-09-17T22:54:49.847Z,13.73
2018-09-17T22:57:17.068Z,12.20
2018-09-17T22:59:44.450Z,10.70
2018-09-17T23:02:11.880Z,12.03
2018-09-17T23:04:39.203Z,11.37
2018-09-17T23:07:06.399Z,11.53
2018-09-17T23:09:33.639Z,12.77
2018-09-17T23:12:00.990Z,12.10
2018-09-17T23:14:28.364Z,11.33
2018-09-17T23:16:55.595Z,12.33
2018-09-17T23:19:23.734Z,11.40
2018-09-17T23:21:50.951Z,11.93
2018-09-17T23:24:18.141Z,12.40
2018-09-17T23:26:45.433Z,11.90
2018-09-17T23:29:12.997Z,12.00
2018-09-17T23:31:43.498Z,11.03
2018-09-17T23:34:10.851Z,11.97
2018-09-17T23:36:38.452Z,12.43
2018-09-17T23:39:08.364Z,12.47
2018-09-17T23:41:35.664Z,14.90
2018-09-17T23:44:02.878Z,11.50
2018-09-17T23:46:30.134Z,12.93
2018-09-17T23:48:57.441Z,12.53
2018-09-17T23:51:24.661Z,13.37
2018-09-17T23:53:52.016Z,13.20
2018-09-17T23:56:19.957Z,12.97
2018-09-17T23:58:47.518Z,12.23
